Terminal Aerodrome Forecast
Issued by NWS Milwaukee/Sullivan, WI

Home | Current Version | Previous Version | Text Only | Print | Product List | Glossary On
Versions: 1 2 3 4 5 6 7 8 9 10 11 12 13 14 15 16 17 18 19 20 21 22 23 24 25 26 27 28 29 30 31 32 33 34 35 36 37 38 39 40 41 42 43 44
000
FTUS43 KMKX 220520
TAFMKE
TAF
KMKE 220520Z 2206/2312 18010KT P6SM SCT060 BKN250 WS020/19045KT
     FM221000 18010KT P6SM VCSH BKN060 WS020/20040KT
     FM221500 18013G23KT P6SM VCSH OVC030
     FM221700 19012G20KT 6SM -SHRA OVC015
     FM221900 23010KT 6SM -SHRA OVC015
     FM222100 33009KT 6SM -SHRA OVC025
     FM230100 34006KT P6SM BKN050
     FM230800 31004KT P6SM SCT110=

USA.gov is the U.S. government's official web portal to all federal, state and local government web resources and services.